sensor_id;sensor_type;location;lat;lon;timestamp;P1;durP1;ratioP1;P2;durP2;ratioP2
2638;SDS011;1329;51.384;7.122;2022-07-22T00:02:13;13.27;;;12.13;;
2638;SDS011;1329;51.384;7.122;2022-07-22T00:04:41;12.82;;;11.73;;
2638;SDS011;1329;51.384;7.122;2022-07-22T00:07:08;12.75;;;11.65;;
2638;SDS011;1329;51.384;7.122;2022-07-22T00:09:35;11.90;;;10.80;;
2638;SDS011;1329;51.384;7.122;2022-07-22T00:12:03;11.30;;;10.30;;
2638;SDS011;1329;51.384;7.122;2022-07-22T00:14:30;9.60;;;8.75;;
2638;SDS011;1329;51.384;7.122;2022-07-22T00:16:58;8.57;;;7.85;;
2638;SDS011;1329;51.384;7.122;2022-07-22T00:19:26;8.52;;;7.82;;
2638;SDS011;1329;51.384;7.122;2022-07-22T00:21:53;7.97;;;7.18;;
2638;SDS011;1329;51.384;7.122;2022-07-22T00:24:21;6.63;;;6.05;;
2638;SDS011;1329;51.384;7.122;2022-07-22T00:26:48;5.55;;;5.03;;
2638;SDS011;1329;51.384;7.122;2022-07-22T00:29:18;5.70;;;5.18;;
2638;SDS011;1329;51.384;7.122;2022-07-22T00:31:45;5.70;;;5.20;;
2638;SDS011;1329;51.384;7.122;2022-07-22T00:34:13;5.60;;;5.10;;
2638;SDS011;1329;51.384;7.122;2022-07-22T00:36:43;4.65;;;4.25;;
2638;SDS011;1329;51.384;7.122;2022-07-22T00:39:10;4.82;;;4.40;;
2638;SDS011;1329;51.384;7.122;2022-07-22T00:41:37;5.10;;;4.53;;
2638;SDS011;1329;51.384;7.122;2022-07-22T00:44:05;4.88;;;4.00;;
2638;SDS011;1329;51.384;7.122;2022-07-22T00:46:35;4.43;;;4.03;;
2638;SDS011;1329;51.384;7.122;2022-07-22T00:49:03;5.00;;;3.78;;
2638;SDS011;1329;51.384;7.122;2022-07-22T00:51:32;4.28;;;3.88;;
2638;SDS011;1329;51.384;7.122;2022-07-22T00:54:02;4.22;;;3.70;;
2638;SDS011;1329;51.384;7.122;2022-07-22T00:56:30;3.72;;;3.42;;
2638;SDS011;1329;51.384;7.122;2022-07-22T00:59:05;4.07;;;3.67;;
2638;SDS011;1329;51.384;7.122;2022-07-22T01:01:34;3.55;;;3.33;;
2638;SDS011;1329;51.384;7.122;2022-07-22T01:04:01;3.55;;;3.25;;
2638;SDS011;1329;51.384;7.122;2022-07-22T01:06:29;3.47;;;3.17;;
2638;SDS011;1329;51.384;7.122;2022-07-22T01:08:56;4.18;;;3.78;;
2638;SDS011;1329;51.384;7.122;2022-07-22T01:11:27;4.22;;;3.83;;
2638;SDS011;1329;51.384;7.122;2022-07-22T01:13:55;3.95;;;3.65;;
2638;SDS011;1329;51.384;7.122;2022-07-22T01:16:23;4.40;;;4.00;;
2638;SDS011;1329;51.384;7.122;2022-07-22T01:18:52;4.28;;;3.90;;
2638;SDS011;1329;51.384;7.122;2022-07-22T01:21:20;3.85;;;3.55;;
2638;SDS011;1329;51.384;7.122;2022-07-22T01:23:48;4.35;;;3.95;;
2638;SDS011;1329;51.384;7.122;2022-07-22T01:26:15;4.82;;;4.43;;
2638;SDS011;1329;51.384;7.122;2022-07-22T01:28:43;5.38;;;4.88;;
2638;SDS011;1329;51.384;7.122;2022-07-22T01:31:11;5.78;;;5.28;;
2638;SDS011;1329;51.384;7.122;2022-07-22T01:33:38;7.03;;;6.32;;
2638;SDS011;1329;51.384;7.122;2022-07-22T01:36:06;7.40;;;6.70;;
2638;SDS011;1329;51.384;7.122;2022-07-22T01:38:35;7.18;;;6.35;;
2638;SDS011;1329;51.384;7.122;2022-07-22T01:41:02;7.40;;;6.70;;
2638;SDS011;1329;51.384;7.122;2022-07-22T01:43:30;7.82;;;7.03;;
2638;SDS011;1329;51.384;7.122;2022-07-22T01:45:57;7.75;;;7.03;;
2638;SDS011;1329;51.384;7.122;2022-07-22T01:48:25;8.27;;;7.47;;
2638;SDS011;1329;51.384;7.122;2022-07-22T01:50:52;8.38;;;7.65;;
2638;SDS011;1329;51.384;7.122;2022-07-22T01:53:19;8.77;;;7.88;;
2638;SDS011;1329;51.384;7.122;2022-07-22T01:55:48;8.55;;;7.65;;
2638;SDS011;1329;51.384;7.122;2022-07-22T01:58:16;7.85;;;7.05;;
2638;SDS011;1329;51.384;7.122;2022-07-22T02:00:43;6.38;;;5.88;;
2638;SDS011;1329;51.384;7.122;2022-07-22T02:03:10;5.43;;;4.93;;
2638;SDS011;1329;51.384;7.122;2022-07-22T02:05:38;4.70;;;4.30;;
2638;SDS011;1329;51.384;7.122;2022-07-22T02:08:09;4.20;;;3.90;;
2638;SDS011;1329;51.384;7.122;2022-07-22T02:10:37;3.90;;;3.47;;
2638;SDS011;1329;51.384;7.122;2022-07-22T02:13:06;3.47;;;3.10;;
2638;SDS011;1329;51.384;7.122;2022-07-22T02:15:34;3.20;;;2.75;;
2638;SDS011;1329;51.384;7.122;2022-07-22T02:18:09;3.65;;;3.35;;
2638;SDS011;1329;51.384;7.122;2022-07-22T02:20:38;3.28;;;3.03;;
2638;SDS011;1329;51.384;7.122;2022-07-22T02:23:05;5.40;;;3.40;;
2638;SDS011;1329;51.384;7.122;2022-07-22T02:25:33;3.95;;;3.55;;
2638;SDS011;1329;51.384;7.122;2022-07-22T02:28:01;4.05;;;3.67;;
2638;SDS011;1329;51.384;7.122;2022-07-22T02:30:30;4.40;;;3.95;;
2638;SDS011;1329;51.384;7.122;2022-07-22T02:32:58;3.95;;;3.55;;
2638;SDS011;1329;51.384;7.122;2022-07-22T02:35:25;3.72;;;3.42;;
2638;SDS011;1329;51.384;7.122;2022-07-22T02:37:52;3.58;;;3.28;;
2638;SDS011;1329;51.384;7.122;2022-07-22T02:40:19;5.20;;;3.65;;
2638;SDS011;1329;51.384;7.122;2022-07-22T02:42:47;3.65;;;3.30;;
2638;SDS011;1329;51.384;7.122;2022-07-22T02:45:14;4.95;;;3.50;;
2638;SDS011;1329;51.384;7.122;2022-07-22T02:47:47;3.88;;;3.58;;
2638;SDS011;1329;51.384;7.122;2022-07-22T02:50:18;3.90;;;3.60;;
2638;SDS011;1329;51.384;7.122;2022-07-22T02:52:45;3.95;;;3.60;;
2638;SDS011;1329;51.384;7.122;2022-07-22T02:55:12;3.92;;;3.45;;
2638;SDS011;1329;51.384;7.122;2022-07-22T02:57:40;3.78;;;3.47;;
2638;SDS011;1329;51.384;7.122;2022-07-22T03:00:08;3.40;;;3.10;;
2638;SDS011;1329;51.384;7.122;2022-07-22T03:02:38;3.83;;;3.30;;
2638;SDS011;1329;51.384;7.122;2022-07-22T03:05:07;3.88;;;3.22;;
2638;SDS011;1329;51.384;7.122;2022-07-22T03:07:35;3.15;;;2.92;;
2638;SDS011;1329;51.384;7.122;2022-07-22T03:10:02;5.13;;;3.28;;
2638;SDS011;1329;51.384;7.122;2022-07-22T03:12:30;3.80;;;2.97;;
2638;SDS011;1329;51.384;7.122;2022-07-22T03:14:58;3.63;;;3.33;;
2638;SDS011;1329;51.384;7.122;2022-07-22T03:17:25;4.47;;;3.97;;
2638;SDS011;1329;51.384;7.122;2022-07-22T03:19:52;4.85;;;4.43;;
2638;SDS011;1329;51.384;7.122;2022-07-22T03:22:20;5.50;;;4.88;;
2638;SDS011;1329;51.384;7.122;2022-07-22T03:24:48;5.45;;;4.75;;
2638;SDS011;1329;51.384;7.122;2022-07-22T03:27:18;6.15;;;4.63;;
2638;SDS011;1329;51.384;7.122;2022-07-22T03:29:45;7.63;;;6.72;;
2638;SDS011;1329;51.384;7.122;2022-07-22T03:32:13;7.53;;;6.72;;
2638;SDS011;1329;51.384;7.122;2022-07-22T03:34:40;8.15;;;6.95;;
2638;SDS011;1329;51.384;7.122;2022-07-22T03:37:07;6.35;;;5.75;;
2638;SDS011;1329;51.384;7.122;2022-07-22T03:39:37;8.82;;;6.20;;
2638;SDS011;1329;51.384;7.122;2022-07-22T03:42:04;6.38;;;5.75;;
2638;SDS011;1329;51.384;7.122;2022-07-22T03:44:32;6.10;;;5.45;;
2638;SDS011;1329;51.384;7.122;2022-07-22T03:46:59;6.43;;;5.80;;
2638;SDS011;1329;51.384;7.122;2022-07-22T03:49:27;6.57;;;5.72;;
2638;SDS011;1329;51.384;7.122;2022-07-22T03:51:55;6.72;;;5.55;;
2638;SDS011;1329;51.384;7.122;2022-07-22T03:54:22;6.72;;;5.88;;
2638;SDS011;1329;51.384;7.122;2022-07-22T03:56:51;8.77;;;5.93;;
2638;SDS011;1329;51.384;7.122;2022-07-22T03:59:18;7.97;;;7.13;;
2638;SDS011;1329;51.384;7.122;2022-07-22T04:01:46;7.40;;;6.47;;
2638;SDS011;1329;51.384;7.122;2022-07-22T04:04:15;7.50;;;6.70;;
2638;SDS011;1329;51.384;7.122;2022-07-22T04:10:10;7.15;;;6.38;;
2638;SDS011;1329;51.384;7.122;2022-07-22T04:12:43;6.78;;;6.13;;
2638;SDS011;1329;51.384;7.122;2022-07-22T04:15:10;8.10;;;6.97;;
2638;SDS011;1329;51.384;7.122;2022-07-22T04:17:38;8.13;;;6.70;;
2638;SDS011;1329;51.384;7.122;2022-07-22T04:20:07;7.45;;;6.30;;
2638;SDS011;1329;51.384;7.122;2022-07-22T04:22:36;8.02;;;6.22;;
2638;SDS011;1329;51.384;7.122;2022-07-22T04:25:08;7.97;;;7.18;;
2638;SDS011;1329;51.384;7.122;2022-07-22T04:27:36;7.85;;;6.57;;
2638;SDS011;1329;51.384;7.122;2022-07-22T04:30:06;7.13;;;6.43;;
2638;SDS011;1329;51.384;7.122;2022-07-22T04:32:35;7.20;;;6.50;;
2638;SDS011;1329;51.384;7.122;2022-07-22T04:35:03;7.45;;;6.75;;
2638;SDS011;1329;51.384;7.122;2022-07-22T04:37:31;6.75;;;5.97;;
2638;SDS011;1329;51.384;7.122;2022-07-22T04:39:59;6.93;;;6.20;;
2638;SDS011;1329;51.384;7.122;2022-07-22T04:42:26;6.18;;;5.57;;
2638;SDS011;1329;51.384;7.122;2022-07-22T04:44:54;7.00;;;6.30;;
2638;SDS011;1329;51.384;7.122;2022-07-22T04:47:23;6.15;;;5.55;;
2638;SDS011;1329;51.384;7.122;2022-07-22T04:49:50;6.43;;;5.68;;
2638;SDS011;1329;51.384;7.122;2022-07-22T04:52:18;6.60;;;5.97;;
2638;SDS011;1329;51.384;7.122;2022-07-22T04:54:45;6.47;;;5.32;;
2638;SDS011;1329;51.384;7.122;2022-07-22T04:57:13;5.70;;;5.20;;
2638;SDS011;1329;51.384;7.122;2022-07-22T04:59:41;6.60;;;5.78;;
2638;SDS011;1329;51.384;7.122;2022-07-22T05:02:10;6.43;;;5.80;;
2638;SDS011;1329;51.384;7.122;2022-07-22T05:04:39;7.45;;;5.82;;
2638;SDS011;1329;51.384;7.122;2022-07-22T05:07:07;6.13;;;5.55;;
2638;SDS011;1329;51.384;7.122;2022-07-22T05:09:37;6.25;;;5.50;;
2638;SDS011;1329;51.384;7.122;2022-07-22T05:12:04;7.07;;;5.95;;
2638;SDS011;1329;51.384;7.122;2022-07-22T05:14:34;6.85;;;5.75;;
2638;SDS011;1329;51.384;7.122;2022-07-22T05:17:02;6.00;;;5.40;;
2638;SDS011;1329;51.384;7.122;2022-07-22T05:19:29;6.35;;;5.40;;
2638;SDS011;1329;51.384;7.122;2022-07-22T05:21:58;6.13;;;5.63;;
2638;SDS011;1329;51.384;7.122;2022-07-22T05:24:25;8.63;;;5.72;;
2638;SDS011;1329;51.384;7.122;2022-07-22T05:26:53;5.82;;;5.32;;
2638;SDS011;1329;51.384;7.122;2022-07-22T05:29:22;6.25;;;5.60;;
2638;SDS011;1329;51.384;7.122;2022-07-22T05:31:49;6.40;;;5.80;;
2638;SDS011;1329;51.384;7.122;2022-07-22T05:34:16;6.63;;;5.90;;
2638;SDS011;1329;51.384;7.122;2022-07-22T05:36:44;7.85;;;6.25;;
2638;SDS011;1329;51.384;7.122;2022-07-22T05:39:13;6.72;;;6.00;;
2638;SDS011;1329;51.384;7.122;2022-07-22T05:41:40;6.30;;;5.70;;
2638;SDS011;1329;51.384;7.122;2022-07-22T05:44:09;6.30;;;5.70;;
2638;SDS011;1329;51.384;7.122;2022-07-22T05:46:36;5.82;;;5.18;;
2638;SDS011;1329;51.384;7.122;2022-07-22T05:49:04;6.10;;;5.43;;
2638;SDS011;1329;51.384;7.122;2022-07-22T05:51:31;5.72;;;4.78;;
2638;SDS011;1329;51.384;7.122;2022-07-22T05:53:59;6.95;;;4.78;;
2638;SDS011;1329;51.384;7.122;2022-07-22T05:56:29;4.95;;;4.38;;
2638;SDS011;1329;51.384;7.122;2022-07-22T05:58:56;4.97;;;4.50;;
2638;SDS011;1329;51.384;7.122;2022-07-22T06:01:24;5.63;;;4.50;;
2638;SDS011;1329;51.384;7.122;2022-07-22T06:03:52;4.57;;;4.18;;
2638;SDS011;1329;51.384;7.122;2022-07-22T06:06:19;5.28;;;4.28;;
2638;SDS011;1329;51.384;7.122;2022-07-22T06:08:47;4.97;;;4.20;;
2638;SDS011;1329;51.384;7.122;2022-07-22T06:11:14;7.53;;;4.13;;
2638;SDS011;1329;51.384;7.122;2022-07-22T06:13:43;4.78;;;3.83;;
2638;SDS011;1329;51.384;7.122;2022-07-22T06:16:11;4.20;;;3.80;;
2638;SDS011;1329;51.384;7.122;2022-07-22T06:18:38;5.38;;;3.80;;
2638;SDS011;1329;51.384;7.122;2022-07-22T06:21:05;5.10;;;3.58;;
2638;SDS011;1329;51.384;7.122;2022-07-22T06:23:33;4.30;;;3.58;;
2638;SDS011;1329;51.384;7.122;2022-07-22T06:26:02;4.55;;;3.95;;
2638;SDS011;1329;51.384;7.122;2022-07-22T06:28:36;4.93;;;3.75;;
2638;SDS011;1329;51.384;7.122;2022-07-22T06:31:06;4.28;;;3.55;;
2638;SDS011;1329;51.384;7.122;2022-07-22T06:33:33;4.45;;;3.28;;
2638;SDS011;1329;51.384;7.122;2022-07-22T06:36:01;3.50;;;3.20;;
2638;SDS011;1329;51.384;7.122;2022-07-22T06:38:29;4.65;;;3.25;;
2638;SDS011;1329;51.384;7.122;2022-07-22T06:40:57;3.92;;;3.50;;
2638;SDS011;1329;51.384;7.122;2022-07-22T06:43:24;3.38;;;3.05;;
2638;SDS011;1329;51.384;7.122;2022-07-22T06:45:53;3.17;;;2.88;;
2638;SDS011;1329;51.384;7.122;2022-07-22T06:48:23;3.33;;;2.90;;
2638;SDS011;1329;51.384;7.122;2022-07-22T06:50:50;4.30;;;2.90;;
2638;SDS011;1329;51.384;7.122;2022-07-22T06:53:18;3.38;;;2.75;;
2638;SDS011;1329;51.384;7.122;2022-07-22T06:55:45;4.07;;;2.75;;
2638;SDS011;1329;51.384;7.122;2022-07-22T06:58:13;3.45;;;2.83;;
2638;SDS011;1329;51.384;7.122;2022-07-22T07:00:40;3.85;;;2.67;;
2638;SDS011;1329;51.384;7.122;2022-07-22T07:03:08;4.22;;;2.90;;
2638;SDS011;1329;51.384;7.122;2022-07-22T07:05:37;5.63;;;2.45;;
2638;SDS011;1329;51.384;7.122;2022-07-22T07:08:05;4.38;;;2.83;;
2638;SDS011;1329;51.384;7.122;2022-07-22T07:10:32;3.03;;;2.63;;
2638;SDS011;1329;51.384;7.122;2022-07-22T07:13:00;4.45;;;3.15;;
2638;SDS011;1329;51.384;7.122;2022-07-22T07:15:28;3.33;;;2.80;;
2638;SDS011;1329;51.384;7.122;2022-07-22T07:17:56;5.20;;;3.10;;
2638;SDS011;1329;51.384;7.122;2022-07-22T07:20:27;4.05;;;2.97;;
2638;SDS011;1329;51.384;7.122;2022-07-22T07:22:59;5.65;;;3.10;;
2638;SDS011;1329;51.384;7.122;2022-07-22T07:25:27;3.58;;;3.10;;
2638;SDS011;1329;51.384;7.122;2022-07-22T07:27:54;3.22;;;2.90;;
2638;SDS011;1329;51.384;7.122;2022-07-22T07:30:22;3.22;;;2.78;;
2638;SDS011;1329;51.384;7.122;2022-07-22T07:32:50;3.75;;;2.88;;
2638;SDS011;1329;51.384;7.122;2022-07-22T07:35:17;3.35;;;2.90;;
2638;SDS011;1329;51.384;7.122;2022-07-22T07:37:45;3.80;;;3.13;;
2638;SDS011;1329;51.384;7.122;2022-07-22T07:40:14;3.40;;;3.10;;
2638;SDS011;1329;51.384;7.122;2022-07-22T07:42:42;3.85;;;3.17;;
2638;SDS011;1329;51.384;7.122;2022-07-22T07:45:09;3.58;;;3.20;;
2638;SDS011;1329;51.384;7.122;2022-07-22T07:47:37;4.82;;;3.42;;
2638;SDS011;1329;51.384;7.122;2022-07-22T07:50:06;5.07;;;3.42;;
2638;SDS011;1329;51.384;7.122;2022-07-22T07:52:36;3.50;;;3.20;;
2638;SDS011;1329;51.384;7.122;2022-07-22T07:55:05;4.47;;;3.50;;
2638;SDS011;1329;51.384;7.122;2022-07-22T07:57:36;4.28;;;3.83;;
2638;SDS011;1329;51.384;7.122;2022-07-22T08:00:07;4.45;;;3.70;;
2638;SDS011;1329;51.384;7.122;2022-07-22T08:02:36;4.53;;;3.97;;
2638;SDS011;1329;51.384;7.122;2022-07-22T08:05:05;4.60;;;4.20;;
2638;SDS011;1329;51.384;7.122;2022-07-22T08:07:33;5.38;;;4.88;;
2638;SDS011;1329;51.384;7.122;2022-07-22T08:10:02;6.82;;;6.22;;
2638;SDS011;1329;51.384;7.122;2022-07-22T08:12:31;6.57;;;5.60;;
2638;SDS011;1329;51.384;7.122;2022-07-22T08:15:00;6.43;;;5.82;;
2638;SDS011;1329;51.384;7.122;2022-07-22T08:17:27;6.97;;;6.25;;
2638;SDS011;1329;51.384;7.122;2022-07-22T08:19:55;7.32;;;6.60;;
2638;SDS011;1329;51.384;7.122;2022-07-22T08:22:22;7.03;;;6.43;;
2638;SDS011;1329;51.384;7.122;2022-07-22T08:24:50;7.90;;;7.20;;
2638;SDS011;1329;51.384;7.122;2022-07-22T08:27:19;7.68;;;7.03;;
2638;SDS011;1329;51.384;7.122;2022-07-22T08:29:47;8.27;;;7.47;;
2638;SDS011;1329;51.384;7.122;2022-07-22T08:32:15;8.00;;;7.30;;
2638;SDS011;1329;51.384;7.122;2022-07-22T08:34:43;9.50;;;8.65;;
2638;SDS011;1329;51.384;7.122;2022-07-22T08:37:10;10.25;;;9.30;;
2638;SDS011;1329;51.384;7.122;2022-07-22T08:39:38;10.63;;;9.63;;
2638;SDS011;1329;51.384;7.122;2022-07-22T08:42:05;10.77;;;9.77;;
2638;SDS011;1329;51.384;7.122;2022-07-22T08:44:33;10.57;;;9.57;;
2638;SDS011;1329;51.384;7.122;2022-07-22T08:47:00;10.65;;;9.70;;
2638;SDS011;1329;51.384;7.122;2022-07-22T08:49:30;9.75;;;8.85;;
2638;SDS011;1329;51.384;7.122;2022-07-22T08:51:57;10.48;;;9.48;;
2638;SDS011;1329;51.384;7.122;2022-07-22T08:54:25;10.30;;;9.30;;
2638;SDS011;1329;51.384;7.122;2022-07-22T08:56:52;10.18;;;9.18;;
2638;SDS011;1329;51.384;7.122;2022-07-22T08:59:19;10.40;;;9.40;;
2638;SDS011;1329;51.384;7.122;2022-07-22T09:02:03;10.10;;;9.20;;
2638;SDS011;1329;51.384;7.122;2022-07-22T09:04:34;10.68;;;9.63;;
2638;SDS011;1329;51.384;7.122;2022-07-22T09:07:25;9.60;;;8.70;;
2638;SDS011;1329;51.384;7.122;2022-07-22T09:09:55;10.52;;;9.43;;
2638;SDS011;1329;51.384;7.122;2022-07-22T09:12:24;9.93;;;9.02;;
2638;SDS011;1329;51.384;7.122;2022-07-22T09:14:53;11.48;;;9.10;;
2638;SDS011;1329;51.384;7.122;2022-07-22T09:17:25;10.05;;;9.15;;
2638;SDS011;1329;51.384;7.122;2022-07-22T09:19:56;10.27;;;9.38;;
2638;SDS011;1329;51.384;7.122;2022-07-22T09:22:32;10.80;;;9.70;;
2638;SDS011;1329;51.384;7.122;2022-07-22T09:25:18;11.13;;;9.77;;
2638;SDS011;1329;51.384;7.122;2022-07-22T09:27:54;10.65;;;9.65;;
2638;SDS011;1329;51.384;7.122;2022-07-22T09:30:35;11.02;;;10.02;;
2638;SDS011;1329;51.384;7.122;2022-07-22T09:33:06;11.70;;;10.55;;
2638;SDS011;1329;51.384;7.122;2022-07-22T09:35:36;12.02;;;10.93;;
2638;SDS011;1329;51.384;7.122;2022-07-22T09:38:06;10.80;;;9.80;;
2638;SDS011;1329;51.384;7.122;2022-07-22T09:40:38;11.43;;;10.23;;
2638;SDS011;1329;51.384;7.122;2022-07-22T09:43:08;10.93;;;9.90;;
2638;SDS011;1329;51.384;7.122;2022-07-22T09:45:43;10.98;;;9.82;;
2638;SDS011;1329;51.384;7.122;2022-07-22T09:48:13;10.85;;;9.75;;
2638;SDS011;1329;51.384;7.122;2022-07-22T09:50:46;11.57;;;10.48;;
2638;SDS011;1329;51.384;7.122;2022-07-22T09:53:14;10.77;;;9.77;;
2638;SDS011;1329;51.384;7.122;2022-07-22T09:55:43;10.95;;;9.85;;
2638;SDS011;1329;51.384;7.122;2022-07-22T09:58:13;10.23;;;9.27;;
2638;SDS011;1329;51.384;7.122;2022-07-22T10:00:43;10.43;;;9.38;;
2638;SDS011;1329;51.384;7.122;2022-07-22T10:03:17;10.30;;;9.30;;
2638;SDS011;1329;51.384;7.122;2022-07-22T10:05:52;11.35;;;10.35;;
2638;SDS011;1329;51.384;7.122;2022-07-22T10:08:23;11.18;;;10.07;;
2638;SDS011;1329;51.384;7.122;2022-07-22T10:10:54;10.77;;;9.77;;
2638;SDS011;1329;51.384;7.122;2022-07-22T10:13:26;11.80;;;10.70;;
2638;SDS011;1329;51.384;7.122;2022-07-22T10:15:55;11.45;;;10.35;;
2638;SDS011;1329;51.384;7.122;2022-07-22T10:18:23;11.48;;;10.40;;
2638;SDS011;1329;51.384;7.122;2022-07-22T10:21:02;11.80;;;10.60;;
2638;SDS011;1329;51.384;7.122;2022-07-22T10:23:31;11.75;;;10.60;;
2638;SDS011;1329;51.384;7.122;2022-07-22T10:25:59;12.40;;;11.20;;
2638;SDS011;1329;51.384;7.122;2022-07-22T10:28:29;11.02;;;10.10;;
2638;SDS011;1329;51.384;7.122;2022-07-22T10:31:18;11.32;;;10.23;;
2638;SDS011;1329;51.384;7.122;2022-07-22T10:33:50;12.23;;;11.07;;
2638;SDS011;1329;51.384;7.122;2022-07-22T10:36:33;11.82;;;10.73;;
2638;SDS011;1329;51.384;7.122;2022-07-22T10:39:08;11.70;;;10.50;;
2638;SDS011;1329;51.384;7.122;2022-07-22T10:41:38;11.88;;;10.75;;
2638;SDS011;1329;51.384;7.122;2022-07-22T10:44:09;12.02;;;10.93;;
2638;SDS011;1329;51.384;7.122;2022-07-22T10:46:47;12.43;;;11.10;;
2638;SDS011;1329;51.384;7.122;2022-07-22T10:49:17;11.88;;;10.75;;
2638;SDS011;1329;51.384;7.122;2022-07-22T10:57:47;11.93;;;10.80;;
2638;SDS011;1329;51.384;7.122;2022-07-22T11:00:15;12.57;;;11.27;;
2638;SDS011;1329;51.384;7.122;2022-07-22T11:02:46;12.27;;;11.02;;
2638;SDS011;1329;51.384;7.122;2022-07-22T11:05:23;12.38;;;11.18;;
2638;SDS011;1329;51.384;7.122;2022-07-22T11:07:54;13.88;;;12.38;;
2638;SDS011;1329;51.384;7.122;2022-07-22T11:10:21;13.93;;;12.48;;
2638;SDS011;1329;51.384;7.122;2022-07-22T11:12:51;13.27;;;11.98;;
2638;SDS011;1329;51.384;7.122;2022-07-22T11:15:24;13.25;;;11.93;;
2638;SDS011;1329;51.384;7.122;2022-07-22T11:17:55;12.57;;;11.40;;
2638;SDS011;1329;51.384;7.122;2022-07-22T11:20:23;13.73;;;12.23;;
2638;SDS011;1329;51.384;7.122;2022-07-22T11:22:51;13.63;;;12.23;;
2638;SDS011;1329;51.384;7.122;2022-07-22T11:25:22;13.25;;;11.85;;
2638;SDS011;1329;51.384;7.122;2022-07-22T11:27:55;12.70;;;11.40;;
2638;SDS011;1329;51.384;7.122;2022-07-22T11:30:23;14.75;;;13.13;;
2638;SDS011;1329;51.384;7.122;2022-07-22T11:32:51;13.95;;;12.55;;
2638;SDS011;1329;51.384;7.122;2022-07-22T11:35:19;13.85;;;12.45;;
2638;SDS011;1329;51.384;7.122;2022-07-22T11:37:56;14.15;;;12.48;;
2638;SDS011;1329;51.384;7.122;2022-07-22T11:40:23;14.68;;;12.85;;
2638;SDS011;1329;51.384;7.122;2022-07-22T11:43:02;14.30;;;12.88;;
2638;SDS011;1329;51.384;7.122;2022-07-22T11:45:29;15.18;;;12.30;;
2638;SDS011;1329;51.384;7.122;2022-07-22T11:47:59;13.50;;;11.65;;
2638;SDS011;1329;51.384;7.122;2022-07-22T11:50:35;14.95;;;13.35;;
2638;SDS011;1329;51.384;7.122;2022-07-22T11:53:06;15.20;;;13.05;;
2638;SDS011;1329;51.384;7.122;2022-07-22T11:55:36;15.13;;;13.52;;
2638;SDS011;1329;51.384;7.122;2022-07-22T11:58:03;14.82;;;12.93;;
2638;SDS011;1329;51.384;7.122;2022-07-22T12:00:31;14.32;;;12.57;;
2638;SDS011;1329;51.384;7.122;2022-07-22T12:03:01;15.77;;;13.75;;
2638;SDS011;1329;51.384;7.122;2022-07-22T12:05:30;16.42;;;14.15;;
2638;SDS011;1329;51.384;7.122;2022-07-22T12:07:57;17.90;;;13.77;;
2638;SDS011;1329;51.384;7.122;2022-07-22T12:10:27;15.18;;;13.27;;
2638;SDS011;1329;51.384;7.122;2022-07-22T12:12:56;18.13;;;15.55;;
2638;SDS011;1329;51.384;7.122;2022-07-22T12:15:24;20.75;;;16.13;;
2638;SDS011;1329;51.384;7.122;2022-07-22T12:17:54;21.23;;;17.27;;
2638;SDS011;1329;51.384;7.122;2022-07-22T12:20:42;22.05;;;18.58;;
2638;SDS011;1329;51.384;7.122;2022-07-22T12:23:11;22.30;;;18.05;;
2638;SDS011;1329;51.384;7.122;2022-07-22T12:25:51;20.55;;;16.58;;
2638;SDS011;1329;51.384;7.122;2022-07-22T12:28:27;21.40;;;18.02;;
2638;SDS011;1329;51.384;7.122;2022-07-22T12:30:57;22.63;;;19.85;;
2638;SDS011;1329;51.384;7.122;2022-07-22T12:33:27;20.48;;;17.77;;
2638;SDS011;1329;51.384;7.122;2022-07-22T12:35:58;20.17;;;17.08;;
2638;SDS011;1329;51.384;7.122;2022-07-22T12:38:31;19.60;;;17.08;;
2638;SDS011;1329;51.384;7.122;2022-07-22T12:43:55;22.23;;;18.45;;
2638;SDS011;1329;51.384;7.122;2022-07-22T12:46:24;22.80;;;18.73;;
2638;SDS011;1329;51.384;7.122;2022-07-22T12:48:53;21.52;;;18.40;;
2638;SDS011;1329;51.384;7.122;2022-07-22T12:51:25;20.02;;;17.88;;
2638;SDS011;1329;51.384;7.122;2022-07-22T12:54:01;21.00;;;18.25;;
2638;SDS011;1329;51.384;7.122;2022-07-22T12:56:30;21.52;;;17.35;;
2638;SDS011;1329;51.384;7.122;2022-07-22T12:58:59;21.58;;;17.38;;
2638;SDS011;1329;51.384;7.122;2022-07-22T13:01:30;20.55;;;17.73;;
2638;SDS011;1329;51.384;7.122;2022-07-22T13:04:02;21.30;;;17.77;;
2638;SDS011;1329;51.384;7.122;2022-07-22T13:06:30;20.75;;;17.70;;
2638;SDS011;1329;51.384;7.122;2022-07-22T13:08:58;22.48;;;18.05;;
2638;SDS011;1329;51.384;7.122;2022-07-22T13:11:31;19.92;;;17.27;;
2638;SDS011;1329;51.384;7.122;2022-07-22T13:14:08;19.08;;;17.02;;
2638;SDS011;1329;51.384;7.122;2022-07-22T13:16:36;19.88;;;17.77;;
2638;SDS011;1329;51.384;7.122;2022-07-22T13:19:06;20.55;;;17.60;;
2638;SDS011;1329;51.384;7.122;2022-07-22T13:21:35;20.38;;;18.05;;
2638;SDS011;1329;51.384;7.122;2022-07-22T13:24:05;19.15;;;16.98;;
2638;SDS011;1329;51.384;7.122;2022-07-22T13:26:38;18.27;;;16.30;;
2638;SDS011;1329;51.384;7.122;2022-07-22T13:29:08;18.80;;;16.75;;
2638;SDS011;1329;51.384;7.122;2022-07-22T13:31:37;18.55;;;16.55;;
2638;SDS011;1329;51.384;7.122;2022-07-22T13:34:07;20.20;;;17.30;;
2638;SDS011;1329;51.384;7.122;2022-07-22T13:36:44;17.92;;;15.95;;
2638;SDS011;1329;51.384;7.122;2022-07-22T13:39:15;19.42;;;17.35;;
2638;SDS011;1329;51.384;7.122;2022-07-22T13:41:49;19.10;;;17.05;;
2638;SDS011;1329;51.384;7.122;2022-07-22T13:44:20;19.45;;;17.45;;
2638;SDS011;1329;51.384;7.122;2022-07-22T13:46:50;18.65;;;16.67;;
2638;SDS011;1329;51.384;7.122;2022-07-22T13:49:22;18.70;;;16.75;;
2638;SDS011;1329;51.384;7.122;2022-07-22T13:51:56;18.92;;;16.70;;
2638;SDS011;1329;51.384;7.122;2022-07-22T13:54:29;18.25;;;16.08;;
2638;SDS011;1329;51.384;7.122;2022-07-22T13:57:04;17.88;;;15.98;;
2638;SDS011;1329;51.384;7.122;2022-07-22T13:59:52;19.33;;;17.15;;
2638;SDS011;1329;51.384;7.122;2022-07-22T14:02:22;19.02;;;16.45;;
2638;SDS011;1329;51.384;7.122;2022-07-22T14:04:58;18.60;;;16.20;;
2638;SDS011;1329;51.384;7.122;2022-07-22T14:07:28;18.13;;;16.17;;
2638;SDS011;1329;51.384;7.122;2022-07-22T14:10:00;17.83;;;15.98;;
2638;SDS011;1329;51.384;7.122;2022-07-22T14:12:33;18.00;;;16.08;;
2638;SDS011;1329;51.384;7.122;2022-07-22T14:15:05;18.77;;;15.93;;
2638;SDS011;1329;51.384;7.122;2022-07-22T14:17:46;18.73;;;16.73;;
2638;SDS011;1329;51.384;7.122;2022-07-22T14:20:30;18.52;;;16.63;;
2638;SDS011;1329;51.384;7.122;2022-07-22T14:23:03;18.58;;;16.67;;
2638;SDS011;1329;51.384;7.122;2022-07-22T14:25:34;18.77;;;16.85;;
2638;SDS011;1329;51.384;7.122;2022-07-22T14:28:10;18.42;;;16.63;;
2638;SDS011;1329;51.384;7.122;2022-07-22T14:30:40;18.42;;;16.60;;
2638;SDS011;1329;51.384;7.122;2022-07-22T14:33:08;18.20;;;16.40;;
2638;SDS011;1329;51.384;7.122;2022-07-22T14:35:40;18.92;;;17.00;;
2638;SDS011;1329;51.384;7.122;2022-07-22T14:38:17;18.25;;;16.38;;
2638;SDS011;1329;51.384;7.122;2022-07-22T14:40:51;17.67;;;15.90;;
2638;SDS011;1329;51.384;7.122;2022-07-22T14:43:23;17.75;;;15.98;;
2638;SDS011;1329;51.384;7.122;2022-07-22T14:45:53;18.35;;;16.45;;
2638;SDS011;1329;51.384;7.122;2022-07-22T14:48:29;18.60;;;16.70;;
2638;SDS011;1329;51.384;7.122;2022-07-22T14:51:07;18.83;;;16.92;;
2638;SDS011;1329;51.384;7.122;2022-07-22T14:53:43;18.90;;;16.90;;
2638;SDS011;1329;51.384;7.122;2022-07-22T14:56:15;18.20;;;16.40;;
2638;SDS011;1329;51.384;7.122;2022-07-22T14:58:49;17.02;;;15.43;;
2638;SDS011;1329;51.384;7.122;2022-07-22T15:01:21;17.70;;;15.80;;
2638;SDS011;1329;51.384;7.122;2022-07-22T15:03:49;17.40;;;15.50;;
2638;SDS011;1329;51.384;7.122;2022-07-22T15:06:21;16.83;;;15.18;;
2638;SDS011;1329;51.384;7.122;2022-07-22T15:08:56;16.55;;;14.85;;
2638;SDS011;1329;51.384;7.122;2022-07-22T15:11:23;17.38;;;15.60;;
2638;SDS011;1329;51.384;7.122;2022-07-22T15:13:53;17.77;;;15.75;;
2638;SDS011;1329;51.384;7.122;2022-07-22T15:16:23;17.98;;;16.17;;
2638;SDS011;1329;51.384;7.122;2022-07-22T15:19:00;18.65;;;16.75;;
2638;SDS011;1329;51.384;7.122;2022-07-22T15:21:38;18.27;;;16.40;;
2638;SDS011;1329;51.384;7.122;2022-07-22T15:24:11;18.55;;;16.65;;
2638;SDS011;1329;51.384;7.122;2022-07-22T15:26:40;17.77;;;15.93;;
2638;SDS011;1329;51.384;7.122;2022-07-22T15:29:19;18.27;;;16.48;;
2638;SDS011;1329;51.384;7.122;2022-07-22T15:31:57;18.58;;;16.65;;
2638;SDS011;1329;51.384;7.122;2022-07-22T15:34:31;17.95;;;16.15;;